createdAt,value
2023-02-18T00:01:39.390Z,10.93
2023-02-18T00:05:05.416Z,10.93
2023-02-18T00:08:30.716Z,10.94
2023-02-18T00:11:55.973Z,10.92
2023-02-18T00:15:21.184Z,10.93
2023-02-18T00:18:46.409Z,10.91
2023-02-18T00:22:11.683Z,10.92
2023-02-18T00:25:36.946Z,10.93
2023-02-18T00:29:02.206Z,10.94
2023-02-18T00:32:27.441Z,10.93
2023-02-18T00:35:52.702Z,10.92
2023-02-18T00:39:18.926Z,10.94
2023-02-18T00:42:44.176Z,10.94
2023-02-18T00:46:10.006Z,10.95
2023-02-18T00:49:34.745Z,10.95
2023-02-18T00:53:00.016Z,10.96
2023-02-18T00:56:25.262Z,10.98
2023-02-18T00:59:50.503Z,10.98
2023-02-18T01:03:15.838Z,10.98
2023-02-18T01:06:41.076Z,10.98
2023-02-18T01:10:06.360Z,10.99
2023-02-18T01:13:31.605Z,11
2023-02-18T01:16:56.859Z,11
2023-02-18T01:20:22.157Z,11
2023-02-18T01:23:47.421Z,10.97
2023-02-18T01:27:12.690Z,10.94
2023-02-18T01:30:37.969Z,10.94
2023-02-18T01:34:03.212Z,10.94
2023-02-18T01:37:28.467Z,10.95
2023-02-18T01:40:53.728Z,10.97
2023-02-18T01:44:19.055Z,10.98
2023-02-18T01:47:44.354Z,10.99
2023-02-18T01:51:09.637Z,10.96
2023-02-18T01:54:34.884Z,10.93
2023-02-18T01:58:00.139Z,10.92
2023-02-18T02:01:25.394Z,10.92
2023-02-18T02:04:50.673Z,10.87
2023-02-18T02:08:15.931Z,10.85
2023-02-18T02:11:41.219Z,10.84
2023-02-18T02:15:06.441Z,10.84
2023-02-18T02:18:31.722Z,10.82
2023-02-18T02:21:57.008Z,10.81
2023-02-18T02:25:22.257Z,10.78
2023-02-18T02:28:47.576Z,10.78
2023-02-18T02:32:12.814Z,10.75
2023-02-18T02:35:38.056Z,10.75
2023-02-18T02:39:03.344Z,10.76
2023-02-18T02:42:28.616Z,10.78
2023-02-18T02:45:53.978Z,10.8
2023-02-18T02:49:19.235Z,10.8
2023-02-18T02:52:44.487Z,10.78
2023-02-18T02:56:10.014Z,10.75
2023-02-18T02:59:35.045Z,10.77
2023-02-18T03:03:00.339Z,10.79
2023-02-18T03:06:25.594Z,10.76
2023-02-18T03:09:50.905Z,10.77
2023-02-18T03:13:16.162Z,10.75
2023-02-18T03:16:41.456Z,10.78
2023-02-18T03:20:06.735Z,10.77
2023-02-18T03:23:31.989Z,10.76
2023-02-18T03:26:57.252Z,10.77
2023-02-18T03:30:22.581Z,10.75
2023-02-18T03:33:47.821Z,10.72
2023-02-18T03:37:13.103Z,10.71
2023-02-18T03:40:38.314Z,10.72
2023-02-18T03:44:03.616Z,10.73
2023-02-18T03:47:28.868Z,10.75
2023-02-18T03:50:54.159Z,10.78
2023-02-18T03:54:19.446Z,10.77
2023-02-18T03:57:44.737Z,10.73
2023-02-18T04:01:10.097Z,10.73
2023-02-18T04:04:35.393Z,10.71
2023-02-18T04:08:00.626Z,10.66
2023-02-18T04:11:25.939Z,10.6
2023-02-18T04:14:51.149Z,10.56
2023-02-18T04:18:16.428Z,10.52
2023-02-18T04:21:41.675Z,10.49
2023-02-18T04:25:06.942Z,10.49
2023-02-18T04:28:32.202Z,10.5
2023-02-18T04:31:57.475Z,10.51
2023-02-18T04:35:22.694Z,10.57
2023-02-18T04:38:47.978Z,10.57
2023-02-18T04:42:13.231Z,10.58
2023-02-18T04:45:38.498Z,10.62
2023-02-18T04:49:03.759Z,10.66
2023-02-18T04:52:29.056Z,10.69
2023-02-18T04:55:54.302Z,10.72
2023-02-18T04:59:19.570Z,10.73
2023-02-18T05:02:44.889Z,10.76
2023-02-18T05:06:10.456Z,10.79
2023-02-18T05:09:35.441Z,10.83
2023-02-18T05:13:00.710Z,10.85
2023-02-18T05:16:26.020Z,10.86
2023-02-18T05:19:51.303Z,10.87
2023-02-18T05:23:16.563Z,10.87
2023-02-18T05:26:41.863Z,10.87
2023-02-18T05:30:07.116Z,10.85
2023-02-18T05:33:32.358Z,10.86
2023-02-18T05:36:57.657Z,10.82
2023-02-18T05:40:22.909Z,10.81
2023-02-18T05:43:48.164Z,10.82
2023-02-18T05:47:13.414Z,10.84
2023-02-18T05:50:38.560Z,10.85
2023-02-18T05:54:03.758Z,10.85
2023-02-18T05:57:29.020Z,10.87
2023-02-18T06:00:54.181Z,10.88
2023-02-18T06:04:19.356Z,10.91
2023-02-18T06:07:44.554Z,10.9
2023-02-18T06:11:09.733Z,10.85
2023-02-18T06:14:34.884Z,10.83
2023-02-18T06:18:00.077Z,10.84
2023-02-18T06:21:25.250Z,10.84
2023-02-18T06:24:50.443Z,10.82
2023-02-18T06:28:15.696Z,10.85
2023-02-18T06:31:40.951Z,10.88
2023-02-18T06:35:06.046Z,10.85
2023-02-18T06:38:31.310Z,10.84
2023-02-18T06:41:56.530Z,10.82
2023-02-18T06:45:21.753Z,10.82
2023-02-18T06:48:46.915Z,10.79
2023-02-18T06:52:12.120Z,10.79
2023-02-18T06:55:37.273Z,10.82
2023-02-18T06:59:02.444Z,10.82
2023-02-18T07:02:27.686Z,10.83
2023-02-18T07:05:52.836Z,10.84
2023-02-18T07:09:18.035Z,10.85
2023-02-18T07:12:43.286Z,10.82
2023-02-18T07:16:08.832Z,10.82
2023-02-18T07:19:33.648Z,10.82
2023-02-18T07:22:58.807Z,10.83
2023-02-18T07:26:23.953Z,10.82
2023-02-18T07:29:49.127Z,10.82
2023-02-18T07:33:14.325Z,10.82
2023-02-18T07:36:39.557Z,10.79
2023-02-18T07:40:04.702Z,10.8
2023-02-18T07:43:29.908Z,10.83
2023-02-18T07:46:55.197Z,10.86
2023-02-18T07:50:20.431Z,10.9
2023-02-18T07:53:45.645Z,10.91
2023-02-18T07:57:10.797Z,10.94
2023-02-18T08:00:36.069Z,10.97
2023-02-18T08:04:02.776Z,10.99
2023-02-18T08:07:28.027Z,10.99
2023-02-18T08:10:53.267Z,11.01
2023-02-18T08:14:18.445Z,11.09
2023-02-18T08:17:43.652Z,11.17
2023-02-18T08:21:08.905Z,11.24
2023-02-18T08:24:34.081Z,11.28
2023-02-18T08:27:59.352Z,11.29
2023-02-18T08:31:24.710Z,11.45
2023-02-18T08:34:49.821Z,11.48
2023-02-18T08:38:15.002Z,11.45
2023-02-18T08:41:40.263Z,11.41
2023-02-18T08:45:05.491Z,11.38
2023-02-18T08:48:30.686Z,11.38
2023-02-18T08:51:55.957Z,11.49
2023-02-18T08:55:21.200Z,11.72
2023-02-18T08:58:46.452Z,11.96
2023-02-18T09:02:11.751Z,12.09
2023-02-18T09:05:36.932Z,12.2
2023-02-18T09:09:02.136Z,12.28
2023-02-18T09:12:27.399Z,12.32
2023-02-18T09:15:52.587Z,12.34
2023-02-18T09:19:17.865Z,12.33
2023-02-18T09:22:43.003Z,12.32
2023-02-18T09:26:08.291Z,12.33
2023-02-18T09:29:33.580Z,12.34
2023-02-18T09:32:58.825Z,12.34
2023-02-18T09:36:24.123Z,12.3
2023-02-18T09:39:49.423Z,12.34
2023-02-18T09:43:14.688Z,12.33
2023-02-18T09:46:39.967Z,12.23
2023-02-18T09:50:05.225Z,12.18
2023-02-18T09:53:30.509Z,12.14
2023-02-18T09:56:55.759Z,12.1
2023-02-18T10:00:20.994Z,12.08
2023-02-18T10:03:46.241Z,12.05
2023-02-18T10:07:11.502Z,11.99
2023-02-18T10:10:36.776Z,11.99
2023-02-18T10:14:01.965Z,11.92
2023-02-18T10:17:27.212Z,11.84
2023-02-18T10:20:52.397Z,11.83
2023-02-18T10:24:17.763Z,11.83
2023-02-18T10:27:43.014Z,11.87
2023-02-18T10:31:08.784Z,11.91
2023-02-18T10:34:33.764Z,11.93
2023-02-18T10:37:59.007Z,11.92
2023-02-18T10:41:24.266Z,11.77
2023-02-18T10:44:49.572Z,11.58
2023-02-18T10:48:14.778Z,11.42
2023-02-18T10:51:40.055Z,11.28
2023-02-18T10:55:05.318Z,11.18
2023-02-18T10:58:30.500Z,11.1
2023-02-18T11:01:55.805Z,10.99
2023-02-18T11:05:20.982Z,10.95
2023-02-18T11:08:46.285Z,10.94
2023-02-18T11:12:11.574Z,10.93
2023-02-18T11:15:36.841Z,10.97
2023-02-18T11:19:02.148Z,10.96
2023-02-18T11:22:27.399Z,10.96
2023-02-18T11:25:52.728Z,10.94
2023-02-18T11:29:17.994Z,10.95
2023-02-18T11:32:43.195Z,10.97
2023-02-18T11:36:08.392Z,11
2023-02-18T11:39:33.552Z,11
2023-02-18T11:42:58.712Z,11
2023-02-18T11:46:23.983Z,11
2023-02-18T11:49:49.226Z,10.96
2023-02-18T11:53:14.499Z,10.91
2023-02-18T11:56:39.733Z,10.85
2023-02-18T12:00:05.044Z,10.88
2023-02-18T12:03:30.293Z,10.91
2023-02-18T12:06:55.589Z,10.95
2023-02-18T12:10:20.905Z,11.03
2023-02-18T12:13:46.228Z,11.09
2023-02-18T12:17:11.634Z,11.11
2023-02-18T12:20:36.875Z,11.11
2023-02-18T12:24:02.148Z,11.09
2023-02-18T12:27:27.450Z,11.11
2023-02-18T12:30:52.776Z,11.13
2023-02-18T12:34:18.132Z,11.16
2023-02-18T12:37:43.453Z,11.22
2023-02-18T12:41:09.322Z,11.31
2023-02-18T12:44:34.397Z,11.36
2023-02-18T12:47:59.710Z,11.38
2023-02-18T12:51:25.029Z,11.38
2023-02-18T12:54:50.337Z,11.38
2023-02-18T12:58:15.615Z,11.4
2023-02-18T13:01:40.955Z,11.38
2023-02-18T13:05:06.273Z,11.4
2023-02-18T13:08:31.672Z,11.41
2023-02-18T13:11:56.953Z,11.39
2023-02-18T13:15:22.267Z,11.34
2023-02-18T13:18:47.639Z,11.28
2023-02-18T13:22:12.945Z,11.23
2023-02-18T13:25:38.252Z,11.26
2023-02-18T13:29:03.556Z,11.32
2023-02-18T13:32:28.881Z,11.37
2023-02-18T13:35:54.215Z,11.44
2023-02-18T13:39:19.509Z,11.57
2023-02-18T13:42:44.831Z,11.68
2023-02-18T13:46:10.200Z,11.7
2023-02-18T13:49:35.519Z,11.73
2023-02-18T13:53:00.817Z,11.76
2023-02-18T13:56:26.095Z,11.73
2023-02-18T13:59:51.462Z,11.63
2023-02-18T14:03:16.811Z,11.52
2023-02-18T14:06:42.089Z,11.46
2023-02-18T14:10:07.493Z,11.38
2023-02-18T14:13:32.778Z,11.32
2023-02-18T14:16:58.156Z,11.24
2023-02-18T14:20:23.436Z,11.17
2023-02-18T14:23:48.703Z,11.05
2023-02-18T14:27:14.028Z,10.96
2023-02-18T15:03:25.096Z,8.68
2023-02-18T15:06:50.416Z,9.64
2023-02-18T15:10:15.727Z,9.89
2023-02-18T15:13:40.975Z,10.11
2023-02-18T15:17:06.260Z,10.27
2023-02-18T15:20:31.668Z,10.37
2023-02-18T15:23:57.025Z,10.44
2023-02-18T15:27:22.311Z,10.52
2023-02-18T15:30:47.567Z,10.58
2023-02-18T15:34:12.835Z,10.61
2023-02-18T15:37:38.135Z,10.63
2023-02-18T15:41:03.414Z,10.64
2023-02-18T15:44:28.697Z,10.63
2023-02-18T15:47:53.964Z,10.63
2023-02-18T15:51:19.549Z,10.67
2023-02-18T15:54:44.490Z,10.73
2023-02-18T15:58:09.741Z,10.72
2023-02-18T16:01:35.084Z,10.72
2023-02-18T16:05:00.344Z,10.71
2023-02-18T16:08:25.624Z,10.73
2023-02-18T16:11:50.910Z,10.67
2023-02-18T16:15:16.118Z,10.7
2023-02-18T16:18:41.409Z,10.7
2023-02-18T16:22:06.619Z,10.68
2023-02-18T16:25:31.880Z,10.65
2023-02-18T16:28:57.297Z,10.64
2023-02-18T16:32:22.507Z,10.64
2023-02-18T16:35:50.142Z,10.64
2023-02-18T16:39:13.425Z,10.62
2023-02-18T16:42:38.697Z,10.59
2023-02-18T16:46:03.998Z,10.56
2023-02-18T16:49:31.006Z,10.56
2023-02-18T16:52:56.451Z,10.54
2023-02-18T16:56:21.678Z,10.49
2023-02-18T16:59:47.018Z,10.49
2023-02-18T17:03:12.365Z,10.48
2023-02-18T17:06:37.693Z,10.44
2023-02-18T17:10:03.276Z,10.41
2023-02-18T17:13:28.629Z,10.4
2023-02-18T17:16:54.502Z,10.37
2023-02-18T17:20:19.713Z,10.37
2023-02-18T17:23:46.594Z,10.34
2023-02-18T17:27:12.382Z,10.32
2023-02-18T17:30:37.760Z,10.28
2023-02-18T17:34:03.114Z,10.21
2023-02-18T17:37:29.308Z,10.23
2023-02-18T17:40:56.432Z,10.25
2023-02-18T17:44:22.080Z,10.26
2023-02-18T17:47:47.477Z,10.29
2023-02-18T17:51:12.889Z,10.32
2023-02-18T17:54:38.338Z,10.33
2023-02-18T17:58:04.249Z,10.36
2023-02-18T18:01:29.951Z,10.39
2023-02-18T18:04:55.359Z,10.39
2023-02-18T18:08:20.700Z,10.4
2023-02-18T18:11:45.995Z,10.39
2023-02-18T18:15:11.214Z,10.42
2023-02-18T18:18:37.353Z,10.43
2023-02-18T18:22:02.619Z,10.43
2023-02-18T18:25:27.954Z,10.43
2023-02-18T18:28:53.334Z,10.45
2023-02-18T18:32:18.543Z,10.46
2023-02-18T18:35:43.873Z,10.48
2023-02-18T18:39:09.184Z,10.5
2023-02-18T18:42:34.520Z,10.47
2023-02-18T18:46:00.048Z,10.47
2023-02-18T18:49:25.168Z,10.47
2023-02-18T18:52:50.440Z,10.48
2023-02-18T18:56:15.808Z,10.48
2023-02-18T18:59:41.122Z,10.46
2023-02-18T19:03:06.449Z,10.47
2023-02-18T19:06:31.709Z,10.49
2023-02-18T19:09:57.009Z,10.57
2023-02-18T19:13:22.311Z,10.59
2023-02-18T19:16:47.664Z,10.59
2023-02-18T19:20:13.040Z,10.6
2023-02-18T19:23:38.309Z,10.62
2023-02-18T19:27:03.580Z,10.65
2023-02-18T19:30:28.823Z,10.67
2023-02-18T19:33:54.145Z,10.72
2023-02-18T19:37:19.411Z,10.74
2023-02-18T19:40:44.646Z,10.74
2023-02-18T19:44:09.943Z,10.81
2023-02-18T19:47:35.226Z,10.91
2023-02-18T19:51:00.521Z,10.98
2023-02-18T19:54:25.838Z,10.99
2023-02-18T19:57:51.110Z,11.02
2023-02-18T20:01:16.615Z,11.06
2023-02-18T20:04:41.878Z,11.1
2023-02-18T20:08:07.203Z,11.05
2023-02-18T20:11:32.556Z,10.94
2023-02-18T20:14:57.868Z,10.86
2023-02-18T20:18:23.136Z,10.81
2023-02-18T20:21:48.464Z,10.79
2023-02-18T20:25:13.751Z,10.8
2023-02-18T20:28:39.055Z,10.79
2023-02-18T20:32:04.508Z,10.79
2023-02-18T20:35:29.626Z,10.8
2023-02-18T20:38:56.219Z,10.77
2023-02-18T20:42:20.238Z,10.73
2023-02-18T20:45:45.549Z,10.76
2023-02-18T20:49:10.819Z,10.75
2023-02-18T20:52:36.073Z,10.74
2023-02-18T20:56:01.369Z,10.73
2023-02-18T20:59:26.580Z,10.72
2023-02-18T21:02:51.966Z,10.74
2023-02-18T21:06:17.236Z,10.72
2023-02-18T21:09:42.497Z,10.71
2023-02-18T21:13:07.867Z,10.69
2023-02-18T21:16:33.155Z,10.72
2023-02-18T21:19:58.487Z,10.75
2023-02-18T21:23:23.770Z,10.81
2023-02-18T21:26:49.048Z,10.81
2023-02-18T21:30:14.348Z,10.8
2023-02-18T21:33:39.746Z,10.77
2023-02-18T21:37:05.037Z,10.76
2023-02-18T21:40:30.327Z,10.8
2023-02-18T21:43:55.617Z,10.83
2023-02-18T21:47:20.959Z,10.85
2023-02-18T21:50:46.188Z,10.85
2023-02-18T21:54:11.490Z,10.82
2023-02-18T21:57:36.786Z,10.8
2023-02-18T22:01:02.177Z,10.78
2023-02-18T22:04:27.428Z,10.71
2023-02-18T22:07:52.784Z,10.67
2023-02-18T22:11:18.088Z,10.66
2023-02-18T22:14:43.298Z,10.64
2023-02-18T22:18:08.599Z,10.65
2023-02-18T22:21:33.909Z,10.61
2023-02-18T22:24:59.222Z,10.55
2023-02-18T22:28:24.541Z,10.52
2023-02-18T22:31:49.849Z,10.52
2023-02-18T22:35:16.690Z,10.51
2023-02-18T22:38:40.370Z,10.54
2023-02-18T22:42:05.664Z,10.56
2023-02-18T22:45:30.981Z,10.57
2023-02-18T22:48:56.254Z,10.56
2023-02-18T22:52:21.534Z,10.55
2023-02-18T22:55:46.801Z,10.48
2023-02-18T22:59:12.148Z,10.46
2023-02-18T23:02:37.499Z,10.46
2023-02-18T23:06:02.801Z,10.48
2023-02-18T23:09:28.154Z,10.53
2023-02-18T23:12:53.421Z,10.55
2023-02-18T23:16:18.742Z,10.58
2023-02-18T23:19:44.140Z,10.59
2023-02-18T23:23:09.371Z,10.61
2023-02-18T23:26:34.635Z,10.61
2023-02-18T23:29:59.956Z,10.57
2023-02-18T23:33:25.169Z,10.51
2023-02-18T23:36:50.459Z,10.5
2023-02-18T23:40:15.685Z,10.49
2023-02-18T23:43:40.932Z,10.49
2023-02-18T23:47:06.198Z,10.46
2023-02-18T23:50:31.453Z,10.46
2023-02-18T23:53:56.739Z,10.47
2023-02-18T23:57:21.971Z,10.46
